Latest Weather Observations for Williamtown

IDN60901

Issued at 1:02 pm EDT Wednesday 16 January 2019 (issued every 10 minutes, with the page automatically refreshed every 10 minutes)

About weather observations | Map of Sydney area stations | Latest observations for Sydney area | Other Formats
Station Details ID: 061078 Name: WILLIAMTOWN RAAF Lat: -32.79 Lon: 151.84 Height: 7.5 m
Data from the previous 72 hours. | See also: Recent months at Williamtown
Date/Time
EDT
Temp
°C
App
Temp
°C
Dew
Point
°C
Rel
Hum
%
Delta-T
°C
Wind Press
QNH
hPa
Press
MSL
hPa
Rain since
9am
mm
Dir  Spd
km/h
Gust
km/h
Spd
kts
Gust
kts
16/12:30pm 31.2 31.9 20.5 53 7.1 SSE 17 24 9 13 1009.6 1009.5 0.0
16/12:00pm 31.4 32.6 20.7 53 7.1 SSE 15 22 8 12 1009.7 1009.6 0.0
16/11:30am 31.2 32.1 20.8 54 6.9 SSE 17 22 9 12 1009.8 1009.7 0.0
16/11:00am 31.1 32.6 21.3 56 6.6 SSE 15 20 8 11 1009.7 1009.6 0.0
16/10:30am 30.5 32.2 21.0 57 6.3 SSE 13 19 7 10 1009.8 1009.7 0.0
16/10:00am 30.9 34.1 20.5 54 6.9 ENE 4 9 2 5 1009.9 1009.8 0.0
16/09:30am 29.0 31.7 20.2 59 5.8 N 6 9 3 5 1009.9 1009.8 0.0
16/09:00am 27.7 29.9 20.3 64 4.9 NNW 9 11 5 6 1009.9 1009.8 0.0
16/08:30am 26.6 28.8 19.7 66 4.5 N 7 11 4 6 1009.9 1009.8 0.0
16/08:00am 25.8 27.4 19.9 70 3.8 NNE 11 13 6 7 1009.4 1009.3 0.0
16/07:30am 24.3 26.7 20.0 77 2.8 NE 7 9 4 5 1009.2 1009.1 0.0
16/07:00am 22.7 26.0 20.0 85 1.7 SSW 2 6 1 3 1008.8 1008.7 0.0
16/06:30am 22.0 25.0 19.2 84 1.8 NNW 2 7 1 4 1008.6 1008.5 0.0
16/06:00am 22.6 24.8 19.6 83 1.9 NE 7 11 4 6 1008.2 1008.2 0.0
16/05:30am 22.4 24.8 19.6 84 1.8 NE 6 9 3 5 1007.9 1007.9 0.0
16/05:00am 22.5 24.8 19.9 85 1.7 NNE 7 11 4 6 1007.9 1007.9 0.0
16/04:30am 22.7 24.6 19.7 83 1.9 ENE 9 11 5 6 1008.0 1008.0 0.0
16/04:00am 23.0 25.3 19.8 82 2.1 ENE 7 9 4 5 1008.0 1008.0 0.0
16/03:30am 23.1 24.9 19.5 80 2.3 E 9 9 5 5 1008.0 1008.0 0.0
16/03:00am 23.6 26.8 19.7 79 2.5 N 2 9 1 5 1008.1 1008.1 0.0
16/02:30am 24.0 26.9 19.9 78 2.6 NE 4 9 2 5 1008.3 1008.3 0.0
16/02:00am 24.3 26.4 20.2 78 2.7 NE 9 11 5 6 1008.6 1008.5 0.0
16/01:30am 24.5 26.6 20.2 77 2.8 NE 9 11 5 6 1008.8 1008.7 0.0
16/01:00am 24.8 26.5 20.1 75 3.1 ENE 11 17 6 9 1009.0 1008.9 0.0
16/12:30am 25.0 25.9 20.0 74 3.2 NE 15 24 8 13 1008.9 1008.8 0.0
16/12:00am 25.3 26.6 20.1 73 3.4 NE 13 17 7 9 1009.4 1009.3 0.0
 
Date/Time
EDT
Temp
°C
App
Temp
°C
Dew
Point
°C
Rel
Hum
%
Delta-T
°C
Wind Press
QNH
hPa
Press
MSL
hPa
Rain since
9am
mm
Dir  Spd
km/h
Gust
km/h
Spd
kts
Gust
kts
15/11:30pm 25.5 25.9 19.9 71 3.6 NE 17 26 9 14 1009.3 1009.2 0.0
15/11:00pm 25.7 26.0 19.6 69 3.9 NE 17 22 9 12 1009.6 1009.5 0.0
15/10:30pm 26.0 26.3 19.6 68 4.1 NNE 17 24 9 13 1009.8 1009.7 0.0
15/10:00pm 26.1 26.6 20.0 69 4.0 NNE 17 26 9 14 1009.9 1009.8 0.0
15/09:30pm 26.3 26.3 20.2 69 4.0 NE 20 30 11 16 1009.7 1009.6 0.0
15/09:00pm 26.8 26.8 20.2 67 4.3 NE 20 32 11 17 1009.7 1009.6 0.0
15/08:30pm 27.3 27.0 19.6 62 5.0 NE 20 32 11 17 1009.6 1009.5 0.0
15/08:00pm 28.0 27.8 19.8 61 5.4 NE 20 32 11 17 1009.4 1009.3 0.0
15/07:30pm 28.7 27.7 19.6 58 5.9 NE 24 32 13 17 1009.3 1009.2 0.0
15/07:00pm 29.5 29.0 19.2 54 6.7 NE 20 33 11 18 1009.1 1009.0 0.0
15/06:30pm 30.5 29.6 19.8 52 7.0 NE 24 35 13 19 1008.8 1008.7 0.0
15/06:00pm 32.2 31.2 20.5 50 7.8 ENE 26 37 14 20 1008.6 1008.5 0.0
15/05:30pm 32.9 31.3 20.1 47 8.5 ENE 28 37 15 20 1008.6 1008.5 0.0
15/05:00pm 33.0 31.1 20.2 47 8.5 ENE 30 39 16 21 1008.8 1008.7 0.0
15/04:30pm 32.7 31.0 20.6 49 8.1 ENE 30 39 16 21 1009.1 1009.0 0.0
15/04:00pm 33.8 32.3 20.2 44 9.1 ENE 28 37 15 20 1009.5 1009.4 0.0
15/03:30pm 33.7 32.5 20.1 44 9.1 ENE 26 33 14 18 1009.9 1009.8 0.0
15/03:00pm 33.8 32.5 19.8 43 9.3 ENE 26 33 14 18 1010.3 1010.2 0.0
15/02:30pm 34.5 33.5 19.7 41 9.8 ENE 24 32 13 17 1010.5 1010.4 0.0
15/02:00pm 35.3 34.5 19.2 38 10.6 ENE 22 33 12 18 1010.8 1010.7 0.0
15/01:30pm 35.4 35.7 19.7 39 10.4 NE 17 28 9 15 1011.1 1011.0 0.0
15/01:00pm 35.2 36.8 19.1 38 10.6 NE 9 13 5 7 1011.8 1011.7 0.0
15/12:30pm 34.3 35.9 19.1 40 10.0 NNE 9 17 5 9 1012.2 1012.1 0.0
15/12:00pm 33.1 34.2 19.6 45 8.9 NNE 13 19 7 10 1012.6 1012.5 0.0
15/11:30am 32.2 33.4 19.8 48 8.2 N 13 19 7 10 1013.1 1013.0 0.0
15/11:00am 31.0 31.7 19.7 51 7.4 N 15 20 8 11 1013.3 1013.2 0.0
15/10:30am 29.6 30.4 19.0 53 6.9 N 13 17 7 9 1013.7 1013.6 0.0
15/10:00am 28.9 29.4 19.2 55 6.3 NNE 15 20 8 11 1013.8 1013.7 0.0
15/09:30am 27.6 28.0 18.9 59 5.6 NNE 15 20 8 11 1014.2 1014.1 0.0
15/09:00am 26.8 27.5 18.9 62 5.1 NNE 13 24 7 13 1014.4 1014.3 0.0
15/08:30am 26.1 27.0 19.2 65 4.4 NNE 13 17 7 9 1014.4 1014.3 0.0
15/08:00am 24.5 24.8 18.7 70 3.7 NE 15 20 8 11 1014.3 1014.2 0.0
15/07:30am 23.8 24.2 18.9 74 3.1 NE 15 20 8 11 1014.2 1014.1 0.0
15/07:00am 23.0 24.4 18.7 77 2.7 NE 9 13 5 7 1014.1 1014.0 0.0
15/06:30am 22.2 24.2 18.8 81 2.1 NNE 6 11 3 6 1013.9 1013.8 0.0
15/06:00am 22.0 24.0 18.8 82 2.0 NNE 6 11 3 6 1013.4 1013.3 0.0
15/05:30am 22.3 23.8 18.9 81 2.1 NE 9 11 5 6 1013.3 1013.2 0.0
15/05:00am 22.4 24.2 18.8 80 2.3 NE 7 9 4 5 1013.3 1013.2 0.0
15/04:30am 22.5 24.5 18.7 79 2.4 N 6 7 3 4 1012.9 1012.8 0.0
15/04:00am 22.8 25.6 18.8 78 2.5 NE 2 9 1 5 1012.9 1012.8 0.0
15/03:30am 23.1 23.3 18.6 76 2.8 NE 15 20 8 11 1012.6 1012.5 0.0
15/03:00am 23.0 23.6 18.5 76 2.8 NE 13 17 7 9 1012.6 1012.5 0.0
15/02:30am 23.2 24.1 18.5 75 3.0 NE 11 15 6 8 1013.1 1013.0 0.0
15/02:00am 23.4 24.0 18.5 74 3.1 NE 13 19 7 10 1013.2 1013.1 0.0
15/01:30am 23.6 24.1 18.3 72 3.3 NE 13 24 7 13 1013.5 1013.4 0.0
15/01:00am 23.8 24.5 18.0 70 3.6 NE 11 17 6 9 1013.7 1013.6 0.0
15/12:30am 24.1 24.3 17.6 67 4.0 NE 13 17 7 9 1013.7 1013.6 0.0
15/12:00am 24.3 24.1 17.5 66 4.2 NE 15 22 8 12 1013.8 1013.7 0.0
 
Date/Time
EDT
Temp
°C
App
Temp
°C
Dew
Point
°C
Rel
Hum
%
Delta-T
°C
Wind Press
QNH
hPa
Press
MSL
hPa
Rain since
9am
mm
Dir  Spd
km/h
Gust
km/h
Spd
kts
Gust
kts
14/11:30pm 24.6 23.9 17.3 64 4.5 NE 17 28 9 15 1013.9 1013.8 0.0
14/11:00pm 24.8 24.5 17.3 63 4.7 NE 15 26 8 14 1014.1 1014.0 0.0
14/10:30pm 24.9 24.7 17.6 64 4.6 NE 15 22 8 12 1014.1 1014.0 0.0
14/10:00pm 25.1 24.2 17.8 64 4.6 NE 19 28 10 15 1014.0 1013.9 0.0
14/09:30pm 25.2 24.3 17.7 63 4.7 NE 19 28 10 15 1013.9 1013.8 0.0
14/09:00pm 25.6 24.5 17.8 62 4.9 NE 20 30 11 16 1013.9 1013.8 0.0
14/08:30pm 26.1 25.2 18.2 61 5.0 NE 20 33 11 18 1013.5 1013.4 0.0
14/08:00pm 26.7 25.7 18.8 62 5.1 ENE 22 30 12 16 1013.6 1013.5 0.0
14/07:30pm 27.1 25.9 19.2 62 5.1 ENE 24 32 13 17 1013.7 1013.6 0.0
14/07:00pm 27.6 26.2 18.9 59 5.6 ENE 24 35 13 19 1013.6 1013.5 0.0
14/06:30pm 28.4 26.1 18.5 55 6.3 ENE 28 35 15 19 1013.4 1013.3 0.0
14/06:00pm 29.0 27.0 18.4 52 6.8 ENE 26 37 14 20 1013.3 1013.2 0.0
14/05:30pm 29.8 28.3 18.6 51 7.2 ENE 24 35 13 19 1013.5 1013.4 0.0
14/05:00pm 30.0 27.5 18.1 49 7.6 ENE 28 37 15 20 1013.6 1013.5 0.0
14/04:30pm 29.6 27.0 17.8 49 7.5 ENE 28 35 15 19 1014.1 1014.0 0.0
14/04:00pm 29.4 26.2 16.2 44 8.2 ENE 28 35 15 19 1014.5 1014.4 0.0
14/03:30pm 29.6 25.2 14.2 39 9.3 ENE 30 37 16 20 1015.0 1014.9 0.0
14/03:00pm 30.2 27.0 16.2 42 8.7 ENE 28 37 15 20 1015.3 1015.2 0.0
14/02:30pm 31.0 29.5 17.7 45 8.5 ENE 22 33 12 18 1015.5 1015.4 0.0
14/02:00pm 29.7 27.4 18.5 51 7.2 ESE 28 37 15 20 1015.8 1015.7 0.0
14/01:30pm 29.6 27.5 18.1 50 7.4 ESE 26 33 14 18 1016.3 1016.2 0.0
14/01:00pm 29.8 28.6 19.2 53 6.9 SE 24 32 13 17 1016.8 1016.7 0.0
14/12:30pm 28.7 28.0 20.2 60 5.6 SE 24 30 13 16 1017.4 1017.3 0.0
14/12:00pm 27.5 27.0 19.0 59 5.5 SE 20 28 11 15 1017.8 1017.7 0.0
14/11:30am 28.4 28.3 17.0 50 7.1 NE 13 26 7 14 1018.0 1017.9 0.0
14/11:00am 28.1 27.4 17.3 52 6.8 NE 17 22 9 12 1018.3 1018.2 0.0
14/10:30am 27.5 26.8 17.4 54 6.3 NE 17 24 9 13 1018.4 1018.3 0.0
14/10:00am 26.8 27.1 17.8 57 5.7 NE 13 19 7 10 1018.6 1018.5 0.0
14/09:30am 26.4 26.4 18.0 60 5.3 NE 15 22 8 12 1018.7 1018.6 0.0
14/09:00am 26.3 26.0 18.2 61 5.1 NE 17 22 9 12 1018.7 1018.6 0.0
14/08:30am 25.4 25.6 18.6 66 4.3 ENE 15 26 8 14 1019.0 1018.9 0.0
14/08:00am 24.5 26.3 20.4 78 2.7 ENE 11 17 6 9 1018.8 1018.7 0.0
14/07:30am 22.8 25.6 21.6 93 0.8 E 9 11 5 6 1018.8 1018.7 0.0
14/07:05am 21.9 24.7 21.6 98 0.2 SE 9 11 5 6 1018.7 1018.6 0.0
14/07:03am 21.7 24.3 21.2 97 0.3 SE 9 11 5 6 1018.6 1018.5 0.0
14/07:00am 21.7 24.4 21.4 98 0.2 SE 9 11 5 6 1018.6 1018.5 0.0
14/06:30am 21.3 23.8 21.0 98 0.2 ESE 9 11 5 6 1018.4 1018.3 0.0
14/06:00am 21.2 23.5 20.7 97 0.3 SE 9 13 5 7 1018.2 1018.1 0.0
14/05:30am 21.3 23.7 20.8 97 0.3 SSE 9 11 5 6 1018.1 1018.0 0.0
14/05:00am 21.4 23.7 20.7 96 0.5 SSE 9 11 5 6 1018.1 1018.0 0.0
14/04:48am 21.4 23.7 20.7 96 0.5 S 9 11 5 6 1018.1 1018.0 0.0
14/04:30am 21.5 23.9 20.8 96 0.5 S 9 11 5 6 1018.0 1017.9 0.0
14/04:22am 21.5 23.9 20.8 96 0.5 S 9 11 5 6 1017.9 1017.8 0.0
14/04:09am 21.6 24.4 20.9 96 0.5 SE 7 11 4 6 1017.9 1017.8 0.0
14/04:00am 21.7 24.2 21.0 96 0.5 SE 9 11 5 6 1017.9 1017.8 0.0
14/03:30am 21.7 23.5 21.2 97 0.3 S 13 15 7 8 1018.0 1017.9 0.0
14/03:00am 21.5 23.6 21.0 97 0.3 S 11 15 6 8 1018.3 1018.2 0.0
14/02:30am 21.6 23.4 21.1 97 0.3 S 13 15 7 8 1018.5 1018.4 0.0
14/02:00am 21.5 23.5 20.8 96 0.5 SSE 11 15 6 8 1018.9 1018.8 0.0
14/01:30am 21.6 23.3 20.9 96 0.5 S 13 19 7 10 1019.3 1019.2 0.0
14/01:17am 21.6 23.6 20.8 95 0.5 SSE 11 13 6 7 1019.4 1019.3 0.0
14/01:13am 21.7 24.1 20.9 95 0.5 SSE 9 13 5 7 1019.4 1019.3 0.0
14/01:00am 21.7 23.8 20.9 95 0.5 SSE 11 15 6 8 1019.5 1019.4 0.0
14/12:30am 21.8 23.8 20.8 94 0.6 SSE 11 13 6 7 1019.7 1019.6 0.0
14/12:00am 21.7 24.4 20.7 94 0.6 SSE 7 9 4 5 1019.8 1019.7 0.0
 
Date/Time
EDT
Temp
°C
App
Temp
°C
Dew
Point
°C
Rel
Hum
%
Delta-T
°C
Wind Press
QNH
hPa
Press
MSL
hPa
Rain since
9am
mm
Dir  Spd
km/h
Gust
km/h
Spd
kts
Gust
kts
13/11:30pm 22.1 24.9 20.9 93 0.8 SSE 7 9 4 5 1019.7 1019.6 0.0
13/11:00pm 22.4 24.9 21.0 92 0.9 SSE 9 11 5 6 1020.0 1019.9 0.0
13/10:30pm 22.4 24.9 21.0 92 0.9 SE 9 11 5 6 1020.2 1020.1 0.0
13/10:00pm 22.5 24.6 21.0 91 1.0 SSE 11 15 6 8 1020.4 1020.3 0.0
13/09:33pm 22.5 24.6 21.0 91 1.0 SSE 11 13 6 7 1020.4 1020.3 0.0
13/09:30pm 22.5 24.6 21.0 91 1.0 SSE 11 15 6 8 1020.3 1020.2 0.0
13/09:19pm 22.5 24.2 21.0 91 1.0 SSE 13 15 7 8 1020.3 1020.2 0.0
13/09:00pm 22.7 24.4 21.0 90 1.1 SSE 13 17 7 9 1020.2 1020.1 0.0
13/08:30pm 22.8 23.6 20.7 88 1.4 SSE 17 24 9 13 1020.0 1019.9 0.0
13/08:00pm 23.0 23.9 20.9 88 1.4 SSE 17 24 9 13 1019.7 1019.6 0.0
13/07:30pm 23.3 24.2 20.8 86 1.6 SE 17 22 9 12 1019.5 1019.4 0.0
13/07:00pm 23.4 22.8 20.5 84 1.9 SSE 24 30 13 16 1019.4 1019.3 0.0
13/06:43pm 23.5 22.9 20.4 83 2.0 SSE 24 30 13 16 1019.4 1019.3 0.0
13/06:30pm 24.0 23.1 20.7 82 2.2 SSE 26 32 14 17 1019.3 1019.2 0.0
13/06:20pm 24.2 23.0 20.9 82 2.2 SSE 28 33 15 18 1019.2 1019.1 0.0
13/06:00pm 23.7 22.4 20.6 83 2.0 SSE 28 37 15 20 1019.1 1019.0 0.0
13/05:30pm 24.3 22.3 20.8 81 2.3 S 32 37 17 20 1018.8 1018.7 0.0
13/05:00pm 25.5 23.4 20.5 74 3.3 S 32 39 17 21 1018.6 1018.5 0.0
13/04:30pm 26.4 24.4 20.0 68 4.2 SSE 30 39 16 21 1018.4 1018.3 0.0
13/04:00pm 26.5 24.7 19.6 66 4.5 SSE 28 35 15 19 1018.5 1018.4 0.0
13/03:30pm 26.5 25.2 19.9 67 4.3 SSE 26 35 14 19 1018.4 1018.3 0.0
13/03:00pm 25.8 25.2 19.7 69 3.9 SE 22 28 12 15 1018.6 1018.5 0.0
13/02:30pm 25.8 24.7 18.7 65 4.5 SSE 22 30 12 16 1018.8 1018.7 0.0
13/02:00pm 26.3 24.8 19.4 66 4.4 S 26 32 14 17 1019.0 1018.9 0.0
13/01:38pm 26.4 24.7 19.8 67 4.3 S 28 35 15 19 1019.1 1019.0 0.0
13/01:30pm 26.9 25.2 19.8 65 4.6 S 28 33 15 18 1019.2 1019.1 0.0

Latest Capital City Observations: Canberra | Sydney | Melbourne | Brisbane | Adelaide | Perth | Hobart | Darwin

Other Formats:

Comma delimited format used in spreadsheet applications
http://www.bom.gov.au/fwo/IDN60901/IDN60901.94776.axf

JavaScript Object Notation format (JSON) in row-major order
http://www.bom.gov.au/fwo/IDN60901/IDN60901.94776.json